Time;durP1;ratioP1;P1;durP2;ratioP2;P2;SDS_P1;SDS_P2;PMS_P1;PMS_P2;Temp;Humidity;BMP_temperature;BMP_pressure;BME280_temperature;BME280_humidity;BME280_pressure;Samples;Min_cycle;Max_cycle;Signal;HPM_P1;HPM_P2
2021/05/21 00:00:28;;;;;;;12.20;8.05;;;15.80;83.50;;;;;;5155689;27;20058;-73
2021/05/21 00:02:54;;;;;;;11.23;8.30;;;15.90;83.70;;;;;;5155389;27;20026;-74
2021/05/21 00:05:20;;;;;;;14.75;8.25;;;15.80;83.80;;;;;;5136356;27;20061;-73
2021/05/21 00:07:46;;;;;;;11.57;8.23;;;15.80;83.80;;;;;;5155546;27;20022;-73
2021/05/21 00:10:12;;;;;;;11.55;8.07;;;15.80;83.80;;;;;;5155438;27;20031;-73
2021/05/21 00:12:38;;;;;;;11.43;8.07;;;15.80;83.70;;;;;;5155442;27;20019;-73
2021/05/21 00:15:05;;;;;;;12.13;8.82;;;15.80;83.70;;;;;;5155897;27;20147;-73
2021/05/21 00:17:31;;;;;;;11.60;7.82;;;15.80;83.60;;;;;;5155590;27;20019;-73
2021/05/21 00:19:57;;;;;;;12.93;8.93;;;15.80;83.70;;;;;;5155295;27;20035;-73
2021/05/21 00:22:23;;;;;;;12.63;9.65;;;15.80;83.70;;;;;;5155930;27;20027;-73
2021/05/21 00:24:48;;;;;;;13.93;10.23;;;15.80;83.80;;;;;;5155867;27;20033;-73
2021/05/21 00:27:14;;;;;;;12.98;10.35;;;15.80;83.90;;;;;;5155339;27;20110;-73
2021/05/21 00:29:40;;;;;;;16.13;10.95;;;15.80;83.90;;;;;;5155195;27;20031;-73
2021/05/21 00:32:06;;;;;;;19.98;11.30;;;15.80;83.90;;;;;;5155495;27;20368;-73
2021/05/21 00:34:32;;;;;;;16.40;10.98;;;15.80;83.80;;;;;;5154818;27;20033;-73
2021/05/21 00:36:57;;;;;;;15.18;11.27;;;15.70;83.60;;;;;;5155194;27;20023;-73
2021/05/21 00:39:23;;;;;;;18.67;12.30;;;15.70;83.70;;;;;;5155275;27;20062;-73
2021/05/21 00:41:49;;;;;;;15.23;11.38;;;15.70;83.80;;;;;;5157650;27;20508;-74
2021/05/21 00:44:16;;;;;;;17.02;10.43;;;15.70;83.70;;;;;;5159910;27;20349;-73
2021/05/21 00:46:42;;;;;;;15.50;10.75;;;15.60;83.50;;;;;;5159333;27;20023;-73
2021/05/21 00:49:07;;;;;;;12.23;9.98;;;15.60;83.50;;;;;;5159298;27;20034;-73
2021/05/21 00:51:33;;;;;;;16.52;9.50;;;15.60;83.40;;;;;;5141265;27;20040;-73
2021/05/21 00:54:00;;;;;;;14.82;9.02;;;15.60;83.50;;;;;;5159078;27;20026;-73
2021/05/21 00:56:26;;;;;;;11.35;8.30;;;15.50;83.50;;;;;;5159215;27;20103;-73
2021/05/21 00:58:52;;;;;;;15.52;8.98;;;15.50;83.50;;;;;;5159330;27;20159;-73
2021/05/21 01:01:18;;;;;;;12.57;9.00;;;15.40;83.60;;;;;;5159213;27;20046;-73
2021/05/21 01:03:44;;;;;;;15.05;8.25;;;15.40;83.80;;;;;;5159244;27;20075;-73
2021/05/21 01:06:12;;;;;;;11.05;8.30;;;15.30;83.90;;;;;;5159046;27;20026;-73
2021/05/21 01:08:38;;;;;;;11.55;8.75;;;15.30;84.10;;;;;;5158608;27;20027;-73
2021/05/21 01:11:06;;;;;;;8.80;7.38;;;15.30;84.40;;;;;;5158833;27;20041;-73
2021/05/21 01:13:33;;;;;;;12.38;8.65;;;15.20;84.50;;;;;;5158786;27;20368;-73
2021/05/21 01:15:59;;;;;;;11.90;8.43;;;15.20;84.80;;;;;;5159273;27;20045;-73
2021/05/21 01:18:25;;;;;;;10.02;8.43;;;15.20;85.10;;;;;;5158811;27;20030;-73
2021/05/21 01:20:51;;;;;;;12.75;8.25;;;15.10;85.30;;;;;;5158489;27;20056;-73
2021/05/21 01:23:17;;;;;;;14.27;8.32;;;15.10;85.50;;;;;;5158933;27;20023;-73
2021/05/21 01:25:43;;;;;;;10.68;7.85;;;15.10;85.80;;;;;;5158265;27;20031;-73
2021/05/21 01:28:12;;;;;;;9.13;8.15;;;15.10;86.10;;;;;;5158606;27;20071;-73
2021/05/21 01:30:37;;;;;;;13.55;8.85;;;15.00;86.20;;;;;;5158768;27;20039;-73
2021/05/21 01:33:10;;;;;;;12.15;8.05;;;15.00;86.40;;;;;;5158492;27;20400;-73
2021/05/21 01:35:37;;;;;;;8.93;6.57;;;15.00;86.60;;;;;;5158742;27;20452;-73
2021/05/21 01:38:03;;;;;;;9.13;7.32;;;15.00;86.40;;;;;;5158434;27;20105;-73
2021/05/21 01:40:29;;;;;;;10.27;7.50;;;14.90;86.30;;;;;;5158264;27;20056;-73
2021/05/21 01:42:59;;;;;;;9.05;6.82;;;14.90;86.40;;;;;;5158674;27;20372;-73
2021/05/21 01:45:25;;;;;;;8.68;6.95;;;14.90;86.40;;;;;;5158331;27;20119;-73
2021/05/21 01:47:51;;;;;;;9.27;6.60;;;14.90;86.20;;;;;;5158220;27;20472;-73
2021/05/21 01:50:17;;;;;;;8.07;6.90;;;14.90;86.20;;;;;;5158379;27;20035;-73
2021/05/21 01:52:46;;;;;;;7.03;6.05;;;14.80;85.90;;;;;;5157244;27;20111;-73
2021/05/21 01:55:13;;;;;;;9.57;6.30;;;14.80;85.60;;;;;;5158339;27;20023;-73
2021/05/21 01:57:40;;;;;;;6.47;4.90;;;14.80;85.40;;;;;;5158264;27;20045;-73
2021/05/21 02:00:08;;;;;;;5.18;4.47;;;14.70;84.90;;;;;;5158363;27;20030;-73
2021/05/21 02:02:34;;;;;;;6.95;4.20;;;14.80;84.40;;;;;;5157741;27;20033;-73
2021/05/21 02:04:59;;;;;;;5.53;4.30;;;14.70;83.80;;;;;;5157855;27;20018;-73
2021/05/21 02:07:25;;;;;;;7.60;4.25;;;14.80;83.40;;;;;;5157800;27;20075;-73
2021/05/21 02:09:58;;;;;;;8.02;4.13;;;14.70;83.00;;;;;;5156419;27;20121;-73
2021/05/21 02:12:29;;;;;;;6.25;3.40;;;14.70;82.50;;;;;;5157835;27;20031;-73
2021/05/21 02:14:59;;;;;;;3.85;3.50;;;14.70;81.60;;;;;;5157413;27;20472;-73
2021/05/21 02:17:26;;;;;;;4.65;3.30;;;14.70;81.20;;;;;;5157994;27;20023;-71
2021/05/21 02:19:57;;;;;;;8.32;3.60;;;14.70;80.70;;;;;;5138719;27;20034;-75
2021/05/21 02:22:23;;;;;;;4.45;3.10;;;14.70;80.20;;;;;;5157351;27;20539;-73
2021/05/21 02:24:55;;;;;;;4.55;3.20;;;14.70;79.90;;;;;;5138630;27;20042;-73
2021/05/21 02:27:21;;;;;;;3.20;2.90;;;14.70;79.40;;;;;;5157459;27;20023;-73
2021/05/21 02:29:47;;;;;;;4.95;2.97;;;14.70;79.10;;;;;;5157373;27;20026;-73
2021/05/21 02:32:13;;;;;;;4.70;2.90;;;14.70;78.80;;;;;;5157449;27;20075;-74
2021/05/21 02:34:38;;;;;;;3.33;3.03;;;14.70;78.50;;;;;;5157291;27;20155;-73
2021/05/21 02:37:04;;;;;;;3.28;2.97;;;14.80;78.20;;;;;;5157249;27;20030;-73
2021/05/21 02:39:30;;;;;;;4.50;2.97;;;14.80;78.20;;;;;;5157185;27;20058;-74
2021/05/21 02:41:56;;;;;;;5.43;2.90;;;14.80;77.70;;;;;;5157099;27;20031;-73
2021/05/21 02:44:21;;;;;;;3.28;2.90;;;14.90;77.60;;;;;;5157355;27;20103;-75
2021/05/21 02:46:47;;;;;;;4.43;2.90;;;14.90;77.60;;;;;;5157082;27;20450;-73
2021/05/21 02:49:19;;;;;;;4.28;2.58;;;15.00;77.30;;;;;;5157068;27;20029;-74
2021/05/21 02:51:48;;;;;;;3.35;2.55;;;15.00;77.10;;;;;;5157259;27;20116;-73
2021/05/21 02:54:15;;;;;;;3.88;2.80;;;15.10;77.00;;;;;;5157166;27;20023;-73
2021/05/21 02:56:40;;;;;;;5.07;3.13;;;15.20;76.80;;;;;;5156849;27;20033;-73
2021/05/21 02:59:06;;;;;;;3.33;2.47;;;15.30;76.50;;;;;;5157022;27;20472;-73
2021/05/21 03:01:32;;;;;;;3.15;2.85;;;15.30;76.30;;;;;;5157035;27;20352;-74
2021/05/21 03:03:58;;;;;;;3.92;2.78;;;15.40;76.10;;;;;;5155363;27;20499;-73
2021/05/21 03:06:24;;;;;;;5.88;3.35;;;15.50;75.90;;;;;;5156606;27;20050;-74
2021/05/21 03:08:50;;;;;;;5.13;2.50;;;15.60;75.60;;;;;;5155806;27;20403;-73
2021/05/21 03:11:15;;;;;;;4.15;3.00;;;15.70;75.10;;;;;;5156165;27;20027;-73
2021/05/21 03:13:41;;;;;;;5.72;3.03;;;15.80;74.70;;;;;;5156721;27;20079;-73
2021/05/21 03:16:07;;;;;;;3.00;2.70;;;15.90;74.30;;;;;;5156244;27;20091;-73
2021/05/21 03:18:34;;;;;;;3.83;3.33;;;16.00;74.20;;;;;;5156303;27;20027;-74
2021/05/21 03:21:00;;;;;;;4.32;3.25;;;16.10;74.00;;;;;;5156568;27;20019;-73
2021/05/21 03:23:25;;;;;;;3.70;3.10;;;16.20;73.90;;;;;;5156208;27;20456;-73
2021/05/21 03:25:51;;;;;;;7.10;3.28;;;16.30;73.60;;;;;;5156810;27;20034;-74
2021/05/21 03:28:17;;;;;;;3.60;3.30;;;16.40;73.60;;;;;;5156594;27;20023;-73
2021/05/21 03:30:43;;;;;;;9.95;3.53;;;16.50;73.30;;;;;;5157018;27;20046;-74
2021/05/21 03:33:09;;;;;;;5.95;3.38;;;16.60;73.00;;;;;;5157376;27;20102;-73
2021/05/21 03:35:38;;;;;;;3.45;3.10;;;16.60;72.70;;;;;;5157187;27;20031;-73
2021/05/21 03:38:08;;;;;;;3.00;2.72;;;16.70;72.70;;;;;;5156370;27;20023;-73
2021/05/21 03:40:36;;;;;;;4.93;2.90;;;16.80;72.30;;;;;;5138285;27;20513;-73
2021/05/21 03:43:02;;;;;;;4.20;2.95;;;16.90;71.90;;;;;;5156153;27;20031;-73
2021/05/21 03:45:28;;;;;;;4.57;2.70;;;16.90;71.30;;;;;;5156128;27;20034;-73
2021/05/21 03:47:54;;;;;;;6.85;2.72;;;16.90;70.60;;;;;;5155953;27;20018;-72
2021/05/21 03:50:21;;;;;;;3.95;2.70;;;16.90;70.50;;;;;;5155522;27;20506;-73
2021/05/21 03:52:48;;;;;;;4.90;2.45;;;17.00;70.20;;;;;;5155693;27;20065;-73
2021/05/21 03:55:15;;;;;;;2.53;2.13;;;17.00;69.80;;;;;;5156047;27;20023;-74
2021/05/21 03:57:42;;;;;;;2.92;2.20;;;17.10;69.50;;;;;;5137182;27;20476;-73
2021/05/21 04:00:10;;;;;;;2.97;2.28;;;17.10;69.10;;;;;;5156802;27;20034;-74
2021/05/21 04:02:36;;;;;;;4.63;2.33;;;17.10;68.70;;;;;;5155672;27;20023;-74
2021/05/21 04:05:03;;;;;;;2.40;2.20;;;17.20;68.20;;;;;;5155626;27;20027;-74
2021/05/21 04:07:28;;;;;;;2.70;2.50;;;17.30;67.80;;;;;;5156263;27;20473;-74
2021/05/21 04:09:54;;;;;;;3.28;1.98;;;17.40;67.20;;;;;;5155969;27;20046;-73
2021/05/21 04:12:20;;;;;;;3.40;2.10;;;17.50;67.00;;;;;;5155444;27;20023;-73
2021/05/21 04:14:46;;;;;;;3.00;2.22;;;17.60;66.70;;;;;;5137394;27;20027;-74
2021/05/21 04:17:11;;;;;;;8.00;2.38;;;17.70;66.40;;;;;;5155218;27;20025;-74
2021/05/21 04:19:37;;;;;;;2.55;1.90;;;17.80;65.90;;;;;;5155196;27;20031;-74
2021/05/21 04:22:03;;;;;;;2.85;1.70;;;17.90;65.50;;;;;;5155456;27;20019;-74
2021/05/21 04:24:29;;;;;;;4.40;1.88;;;18.00;64.90;;;;;;5155102;27;20494;-74
2021/05/21 04:26:55;;;;;;;2.35;1.70;;;18.10;64.40;;;;;;5155614;27;20372;-74
2021/05/21 04:29:20;;;;;;;2.17;1.95;;;18.10;63.80;;;;;;5155570;27;20015;-74
2021/05/21 04:31:46;;;;;;;3.45;1.70;;;18.10;63.30;;;;;;5155204;27;20054;-73
2021/05/21 04:34:12;;;;;;;1.98;1.88;;;18.20;63.30;;;;;;5155496;27;20095;-74
2021/05/21 04:36:39;;;;;;;3.63;1.92;;;18.30;62.90;;;;;;5154907;27;20079;-72
2021/05/21 04:39:05;;;;;;;2.67;1.75;;;18.40;62.70;;;;;;5155524;27;20041;-74
2021/05/21 04:41:31;;;;;;;1.92;1.58;;;18.50;62.60;;;;;;5155333;27;20030;-73
2021/05/21 04:43:57;;;;;;;2.08;1.80;;;18.60;62.30;;;;;;5154710;27;20477;-74
2021/05/21 04:46:23;;;;;;;3.40;1.92;;;18.60;61.90;;;;;;5155051;27;20030;-75
2021/05/21 04:48:49;;;;;;;2.50;1.73;;;18.60;61.60;;;;;;5154881;27;20488;-75
2021/05/21 04:51:15;;;;;;;3.03;1.88;;;18.60;61.20;;;;;;5155122;27;20060;-75
2021/05/21 04:53:41;;;;;;;4.40;2.45;;;18.60;61.00;;;;;;5154923;27;20026;-73
2021/05/21 04:56:08;;;;;;;3.33;2.20;;;18.60;60.90;;;;;;5155559;27;20103;-74
2021/05/21 04:58:35;;;;;;;1.92;1.80;;;18.70;60.90;;;;;;5154950;27;20031;-74
2021/05/21 05:01:01;;;;;;;2.25;2.03;;;18.80;61.00;;;;;;5154789;27;20035;-74
2021/05/21 05:03:28;;;;;;;2.53;2.08;;;18.90;61.00;;;;;;5155140;27;20464;-73
2021/05/21 05:05:54;;;;;;;2.95;1.40;;;19.00;60.70;;;;;;5154773;27;20086;-73
2021/05/21 05:08:20;;;;;;;4.60;2.83;;;19.20;60.50;;;;;;5155079;27;20026;-74
2021/05/21 05:10:47;;;;;;;4.30;1.95;;;19.40;60.30;;;;;;5154332;27;20114;-73
2021/05/21 05:13:12;;;;;;;1.85;1.70;;;19.50;59.80;;;;;;5154690;27;20023;-74
2021/05/21 05:15:38;;;;;;;3.60;1.95;;;19.50;59.30;;;;;;5154829;27;20027;-75
2021/05/21 05:18:05;;;;;;;1.80;1.70;;;19.40;58.70;;;;;;5154607;27;20038;-73
2021/05/21 05:20:31;;;;;;;1.85;1.73;;;19.30;58.50;;;;;;5154699;27;20043;-74
2021/05/21 05:22:57;;;;;;;2.40;1.73;;;19.20;58.20;;;;;;5154838;27;20152;-76
2021/05/21 05:25:23;;;;;;;4.35;1.88;;;19.20;58.40;;;;;;5154307;27;20060;-72
2021/05/21 05:27:52;;;;;;;1.58;1.40;;;19.20;58.30;;;;;;5155227;27;20042;-76
2021/05/21 05:30:19;;;;;;;2.20;1.63;;;19.30;58.10;;;;;;5158180;27;20038;-74
2021/05/21 05:32:46;;;;;;;2.60;1.40;;;19.30;57.90;;;;;;5158512;27;20037;-74
2021/05/21 05:35:12;;;;;;;2.38;1.50;;;19.30;57.50;;;;;;5140185;27;20026;-73
2021/05/21 05:37:38;;;;;;;3.65;1.33;;;19.30;57.00;;;;;;5157839;27;20499;-73
2021/05/21 05:40:05;;;;;;;1.48;1.38;;;19.30;57.00;;;;;;5158196;27;20062;-74
2021/05/21 05:42:31;;;;;;;1.95;1.42;;;19.40;56.60;;;;;;5138645;27;20063;-74
2021/05/21 05:44:57;;;;;;;3.25;1.50;;;19.50;56.20;;;;;;5157798;27;20057;-73
2021/05/21 05:47:24;;;;;;;1.90;1.50;;;19.50;55.60;;;;;;5158582;27;20018;-73
2021/05/21 05:49:50;;;;;;;2.95;1.10;;;19.60;54.80;;;;;;5158143;27;20468;-73
2021/05/21 05:52:15;;;;;;;3.55;1.38;;;19.60;54.50;;;;;;5157970;27;20075;-73
2021/05/21 05:54:42;;;;;;;1.27;1.17;;;19.70;54.60;;;;;;5158253;27;20023;-74
2021/05/21 05:57:08;;;;;;;2.22;1.15;;;19.80;54.30;;;;;;5157901;27;20026;-73
2021/05/21 05:59:34;;;;;;;1.23;0.90;;;19.80;54.00;;;;;;5157460;27;20027;-74
2021/05/21 06:01:59;;;;;;;1.33;1.23;;;19.90;53.60;;;;;;5157822;27;20082;-74
2021/05/21 06:04:25;;;;;;;2.05;1.02;;;20.00;53.30;;;;;;5139141;27;20029;-74
2021/05/21 06:06:51;;;;;;;3.65;1.55;;;20.00;52.90;;;;;;5157461;27;20034;-74
2021/05/21 06:09:17;;;;;;;1.98;1.63;;;20.00;52.80;;;;;;5157494;27;20416;-74
2021/05/21 06:11:43;;;;;;;4.13;1.80;;;20.10;52.90;;;;;;5157825;27;20049;-76
2021/05/21 06:14:09;;;;;;;3.20;1.67;;;20.10;52.80;;;;;;5157997;27;20019;-75
2021/05/21 06:16:35;;;;;;;5.32;1.80;;;20.10;52.50;;;;;;5157402;27;20026;-74
2021/05/21 06:19:01;;;;;;;3.03;1.38;;;20.10;52.10;;;;;;5157547;27;20027;-73
2021/05/21 06:21:27;;;;;;;3.63;1.48;;;20.00;52.10;;;;;;5157268;27;20058;-73
2021/05/21 06:23:52;;;;;;;1.88;1.38;;;20.10;52.10;;;;;;5157275;27;20460;-73
2021/05/21 06:26:42;;;;;;;1.63;1.35;;;20.10;52.10;;;;;;5157556;27;20027;-72
2021/05/21 06:29:04;;;;;;;3.58;1.63;;;20.10;52.30;;;;;;5157461;27;20038;-74
2021/05/21 06:31:30;;;;;;;2.40;1.70;;;20.20;52.50;;;;;;5157380;27;20030;-75
2021/05/21 06:33:56;;;;;;;2.97;1.60;;;20.20;52.30;;;;;;5138459;27;20030;-74
2021/05/21 06:36:22;;;;;;;2.40;1.65;;;20.30;52.20;;;;;;5157493;27;20031;-74
2021/05/21 06:38:48;;;;;;;2.55;1.70;;;20.50;52.10;;;;;;5156387;27;20034;-75
2021/05/21 06:41:13;;;;;;;1.85;1.65;;;20.80;52.10;;;;;;5157207;27;20030;-74
2021/05/21 06:43:39;;;;;;;2.95;2.30;;;21.00;51.80;;;;;;5157457;27;20034;-74
2021/05/21 06:46:05;;;;;;;5.63;2.05;;;21.20;51.60;;;;;;5156991;27;20472;-74
2021/05/21 06:48:33;;;;;;;3.55;2.15;;;21.20;51.60;;;;;;5157333;27;20026;-74
2021/05/21 06:51:05;;;;;;;3.15;1.90;;;21.20;51.40;;;;;;5156773;27;20038;-75
2021/05/21 06:53:31;;;;;;;6.28;2.35;;;21.10;51.30;;;;;;5157038;27;20019;-74
2021/05/21 06:55:58;;;;;;;7.80;2.47;;;21.10;51.60;;;;;;5155908;27;20026;-74
2021/05/21 06:58:25;;;;;;;3.95;2.35;;;21.00;52.00;;;;;;5156854;27;20038;-74
2021/05/21 07:00:52;;;;;;;10.77;4.00;;;21.00;52.20;;;;;;5156867;27;20102;-73
2021/05/21 07:03:18;;;;;;;16.67;4.93;;;20.90;52.40;;;;;;5157308;27;20022;-73
2021/05/21 07:05:44;;;;;;;3.78;1.85;;;20.90;52.60;;;;;;5156992;27;20110;-74
2021/05/21 07:08:15;;;;;;;3.15;2.20;;;20.80;52.70;;;;;;5157123;27;20023;-74
2021/05/21 07:10:41;;;;;;;2.90;1.98;;;20.70;52.80;;;;;;5156357;27;20076;-74
2021/05/21 07:13:15;;;;;;;2.88;1.80;;;20.60;53.10;;;;;;5156726;27;20023;-75
2021/05/21 07:15:41;;;;;;;3.83;2.30;;;20.50;53.30;;;;;;5156575;27;20091;-74
2021/05/21 07:18:07;;;;;;;3.13;2.10;;;20.50;53.50;;;;;;5156295;27;20030;-74
2021/05/21 07:20:34;;;;;;;3.38;2.10;;;20.40;53.50;;;;;;5156404;27;20110;-73
2021/05/21 07:23:00;;;;;;;4.20;2.10;;;20.40;53.60;;;;;;5155996;27;20551;-76
2021/05/21 07:25:27;;;;;;;3.35;2.05;;;20.30;53.50;;;;;;5156409;27;20022;-73
2021/05/21 07:27:53;;;;;;;2.28;1.92;;;20.30;53.50;;;;;;5156754;27;20014;-74
2021/05/21 07:30:20;;;;;;;4.88;2.17;;;20.30;53.60;;;;;;5156619;27;20031;-74
2021/05/21 07:32:46;;;;;;;3.42;2.03;;;20.30;53.70;;;;;;5156199;27;20384;-72
2021/05/21 07:35:12;;;;;;;2.13;2.00;;;20.30;53.90;;;;;;5156126;27;20018;-74
2021/05/21 07:37:39;;;;;;;2.00;1.90;;;20.40;53.40;;;;;;5155987;27;20023;-74
2021/05/21 07:40:06;;;;;;;3.35;1.95;;;20.40;53.20;;;;;;5156123;27;20041;-74
2021/05/21 07:42:34;;;;;;;3.50;1.80;;;20.40;53.20;;;;;;5156205;27;20031;-74
2021/05/21 07:44:59;;;;;;;3.15;1.73;;;20.40;52.80;;;;;;5156081;27;20027;-74
2021/05/21 07:47:25;;;;;;;2.88;1.70;;;20.40;52.90;;;;;;5137411;27;20068;-75
2021/05/21 07:49:51;;;;;;;3.60;1.50;;;20.50;52.60;;;;;;5155271;27;20027;-74
2021/05/21 07:52:16;;;;;;;1.27;1.10;;;20.60;51.80;;;;;;5155002;27;20034;-74
2021/05/21 07:54:42;;;;;;;3.58;1.40;;;20.60;51.70;;;;;;5155491;27;20027;-73
2021/05/21 07:57:08;;;;;;;5.90;1.50;;;20.60;51.60;;;;;;5155375;27;20369;-75
2021/05/21 07:59:34;;;;;;;1.20;1.00;;;20.80;50.80;;;;;;5155981;27;20031;-74
2021/05/21 08:01:59;;;;;;;1.58;0.82;;;21.00;50.10;;;;;;5155238;27;20037;-74
2021/05/21 08:04:25;;;;;;;1.23;0.90;;;21.10;49.50;;;;;;5155252;27;20027;-74
2021/05/21 08:06:51;;;;;;;2.08;0.82;;;21.30;49.00;;;;;;5155558;27;20464;-74
2021/05/21 08:09:17;;;;;;;1.55;0.90;;;21.60;48.40;;;;;;5156115;27;20023;-74
2021/05/21 08:11:43;;;;;;;2.83;1.17;;;21.80;47.80;;;;;;5155525;27;20019;-74
2021/05/21 08:14:10;;;;;;;2.10;0.95;;;22.00;47.40;;;;;;5155543;27;20027;-74
2021/05/21 08:16:37;;;;;;;3.75;0.75;;;22.10;47.00;;;;;;5155322;27;20368;-75
2021/05/21 08:19:03;;;;;;;0.90;0.85;;;22.20;46.80;;;;;;5155421;27;20022;-76
2021/05/21 08:21:29;;;;;;;1.98;1.17;;;22.30;46.60;;;;;;5155076;27;20019;-73
2021/05/21 08:23:55;;;;;;;1.98;1.00;;;22.50;46.30;;;;;;5154921;27;20018;-73
2021/05/21 08:26:27;;;;;;;1.75;1.02;;;22.80;46.00;;;;;;5155280;27;20037;-74
2021/05/21 08:28:54;;;;;;;2.17;0.82;;;23.00;45.70;;;;;;5155288;27;20071;-75
2021/05/21 08:31:20;;;;;;;1.30;0.95;;;23.30;45.40;;;;;;5155225;27;20179;-74
2021/05/21 08:33:47;;;;;;;3.08;0.80;;;23.60;44.90;;;;;;5155154;27;20034;-73
2021/05/21 08:36:14;;;;;;;2.17;0.70;;;24.00;44.60;;;;;;5155187;27;20023;-74
2021/05/21 08:38:46;;;;;;;2.45;0.75;;;24.50;44.10;;;;;;5155039;27;20469;-74
2021/05/21 08:41:18;;;;;;;1.67;1.25;;;25.00;43.30;;;;;;5154933;27;20031;-73
2021/05/21 08:43:48;;;;;;;1.63;1.00;;;25.30;42.80;;;;;;5155722;27;20080;-75
2021/05/21 08:46:17;;;;;;;5.65;2.30;;;25.70;42.00;;;;;;5155615;27;20053;-75
2021/05/21 08:48:43;;;;;;;6.75;1.75;;;26.10;41.80;;;;;;5155671;27;20031;-74
2021/05/21 08:51:09;;;;;;;1.90;1.25;;;26.30;41.40;;;;;;5154896;27;20102;-74
2021/05/21 08:53:39;;;;;;;1.70;0.80;;;26.30;40.80;;;;;;5154992;27;20047;-75
2021/05/21 08:56:06;;;;;;;1.58;1.10;;;26.40;40.40;;;;;;5155520;27;20337;-76
2021/05/21 08:58:33;;;;;;;2.90;1.08;;;26.70;40.30;;;;;;5155789;27;20063;-75
2021/05/21 09:00:59;;;;;;;2.05;1.00;;;26.90;40.00;;;;;;5155018;27;20500;-75
2021/05/21 09:03:26;;;;;;;2.10;0.73;;;27.30;39.90;;;;;;5158350;27;20065;-75
2021/05/21 09:06:13;;;;;;;1.33;1.23;;;27.60;39.50;;;;;;5158879;27;20019;-74
2021/05/21 09:08:49;;;;;;;8.45;0.85;;;27.80;38.70;;;;;;5159710;27;20050;-74
2021/05/21 09:11:35;;;;;;;0.50;0.50;;;28.00;38.10;;;;;;5158647;27;20425;-75
2021/05/21 09:14:04;;;;;;;1.98;0.77;;;28.00;37.70;;;;;;5158982;27;20472;-74
2021/05/21 09:16:40;;;;;;;1.33;0.60;;;28.20;37.70;;;;;;5158659;27;20030;-75
2021/05/21 09:19:38;;;;;;;2.75;0.73;;;28.70;37.50;;;;;;5159254;27;20029;-79
2021/05/21 09:22:06;;;;;;;2.60;0.73;;;29.40;37.50;;;;;;5123760;27;20039;-75
2021/05/21 09:24:32;;;;;;;4.35;1.40;;;30.00;37.40;;;;;;5158475;27;20130;-75
2021/05/21 09:26:58;;;;;;;3.90;1.25;;;30.60;37.30;;;;;;5158497;27;20058;-74
2021/05/21 09:29:45;;;;;;;1.65;0.82;;;31.40;37.00;;;;;;5158425;27;20022;-74
2021/05/21 09:32:34;;;;;;;1.17;0.98;;;32.10;36.10;;;;;;5140290;27;20031;-75
2021/05/21 09:35:13;;;;;;;4.78;0.90;;;32.60;35.70;;;;;;5158476;27;20113;-74
2021/05/21 09:37:47;;;;;;;1.40;0.52;;;33.00;35.00;;;;;;5158526;27;20075;-75
2021/05/21 09:40:15;;;;;;;0.85;0.82;;;33.10;34.10;;;;;;5158508;27;20031;-75
2021/05/21 09:43:00;;;;;;;3.40;0.80;;;33.20;34.30;;;;;;5158439;27;20050;-74
2021/05/21 09:45:37;;;;;;;1.77;1.00;;;33.40;33.80;;;;;;5158394;27;20483;-75
2021/05/21 09:48:07;;;;;;;2.78;0.85;;;33.60;33.90;;;;;;5158713;27;20084;-74
2021/05/21 09:50:40;;;;;;;0.70;0.70;;;33.70;33.50;;;;;;5158410;27;20402;-74
2021/05/21 09:53:16;;;;;;;1.05;0.73;;;33.70;33.50;;;;;;5158107;27;20463;-74
2021/05/21 09:55:43;;;;;;;2.25;0.73;;;33.40;33.30;;;;;;5158015;27;20031;-74
2021/05/21 09:58:42;;;;;;;1.08;0.60;;;33.00;33.20;;;;;;5158286;27;20022;-75
2021/05/21 10:01:23;;;;;;;0.93;0.82;;;32.40;33.10;;;;;;5157181;27;20049;-74
2021/05/21 10:03:57;;;;;;;4.18;0.95;;;31.90;33.20;;;;;;5139231;27;20034;-74
2021/05/21 10:06:24;;;;;;;1.27;0.88;;;31.40;33.40;;;;;;5157477;27;20468;-75
2021/05/21 10:08:52;;;;;;;1.33;0.60;;;31.20;33.70;;;;;;5138837;27;20087;-74
2021/05/21 10:11:18;;;;;;;0.75;0.75;;;31.50;33.90;;;;;;5138585;27;20030;-75
2021/05/21 10:13:46;;;;;;;2.50;0.73;;;32.00;34.00;;;;;;5156968;27;20031;-75
2021/05/21 10:16:20;;;;;;;1.77;0.65;;;32.60;33.60;;;;;;5157335;27;20472;-75
2021/05/21 10:18:47;;;;;;;1.92;0.52;;;33.60;33.10;;;;;;5158086;27;20072;-74
2021/05/21 10:21:15;;;;;;;2.03;0.77;;;34.40;32.60;;;;;;5157659;27;20031;-75
2021/05/21 10:23:53;;;;;;;0.73;0.70;;;35.40;32.20;;;;;;5157745;27;20430;-75
2021/05/21 10:26:28;;;;;;;0.70;0.55;;;36.20;31.40;;;;;;5157639;27;20018;-75
2021/05/21 10:28:58;;;;;;;2.55;0.82;;;36.70;30.60;;;;;;5157354;27;20060;-76
2021/05/21 10:31:24;;;;;;;1.60;0.52;;;36.90;30.40;;;;;;5138662;27;20518;-75
2021/05/21 10:34:09;;;;;;;1.38;0.70;;;36.90;30.20;;;;;;5157207;27;20027;-75
2021/05/21 10:36:35;;;;;;;1.83;0.50;;;37.00;30.00;;;;;;5157523;27;20499;-74
2021/05/21 10:39:06;;;;;;;3.22;0.98;;;37.20;30.10;;;;;;5138609;27;20105;-75
2021/05/21 10:41:33;;;;;;;1.35;0.65;;;37.10;30.00;;;;;;5156869;27;20445;-74
2021/05/21 10:43:59;;;;;;;0.95;0.95;;;37.40;30.20;;;;;;5157102;27;20027;-75
2021/05/21 10:46:26;;;;;;;0.70;0.70;;;38.00;30.40;;;;;;5157005;27;20026;-74
2021/05/21 10:48:53;;;;;;;0.93;0.70;;;38.60;29.90;;;;;;5156918;27;20027;-75
2021/05/21 10:51:20;;;;;;;1.88;0.82;;;38.50;29.50;;;;;;5138074;27;20098;-75
2021/05/21 10:53:47;;;;;;;4.25;0.85;;;38.10;29.10;;;;;;5156992;27;20055;-75
2021/05/21 10:56:16;;;;;;;1.17;1.05;;;37.40;29.20;;;;;;5156977;27;20046;-75
2021/05/21 10:58:46;;;;;;;1.50;0.57;;;36.80;29.30;;;;;;5156840;27;20384;-74
2021/05/21 11:01:23;;;;;;;2.60;0.95;;;36.20;29.40;;;;;;5138792;27;20178;-77
2021/05/21 11:04:08;;;;;;;3.22;0.70;;;35.30;29.50;;;;;;5156748;27;20031;-74
2021/05/21 11:06:40;;;;;;;3.00;1.77;;;34.40;29.90;;;;;;5156672;27;20365;-75
2021/05/21 11:09:08;;;;;;;1.42;1.15;;;33.70;30.30;;;;;;5156195;27;20512;-75
2021/05/21 11:11:45;;;;;;;2.25;0.93;;;33.10;30.40;;;;;;5156503;27;20110;-75
2021/05/21 11:14:30;;;;;;;2.72;1.10;;;32.60;30.60;;;;;;5156285;27;20023;-74
2021/05/21 11:16:57;;;;;;;0.95;0.88;;;32.30;31.00;;;;;;5137838;27;20064;-74
2021/05/21 11:19:26;;;;;;;1.13;1.00;;;32.10;31.50;;;;;;5156392;27;20118;-75
2021/05/21 11:22:22;;;;;;;1.10;1.10;;;32.10;31.80;;;;;;5156204;27;20478;-75
2021/05/21 11:25:07;;;;;;;6.18;1.02;;;32.30;31.80;;;;;;5155925;27;20083;-74
2021/05/21 11:27:36;;;;;;;1.60;0.90;;;32.80;32.00;;;;;;5156066;27;20102;-75
2021/05/21 11:30:10;;;;;;;0.85;0.65;;;33.30;31.60;;;;;;5156099;27;20031;-75
2021/05/21 11:32:40;;;;;;;1.95;1.13;;;33.70;30.90;;;;;;5156382;27;20034;-75
2021/05/21 11:35:08;;;;;;;1.95;0.77;;;33.60;30.70;;;;;;5156365;27;20054;-73
2021/05/21 11:37:35;;;;;;;3.00;1.00;;;33.20;30.70;;;;;;5155797;27;20031;-75
2021/05/21 11:40:06;;;;;;;0.60;0.50;;;32.60;31.00;;;;;;5156055;27;20106;-74
2021/05/21 11:42:32;;;;;;;4.68;1.08;;;32.30;31.10;;;;;;5156876;27;20026;-75
2021/05/21 11:44:58;;;;;;;1.13;0.93;;;32.30;31.30;;;;;;5156222;27;20485;-74
2021/05/21 11:47:36;;;;;;;2.33;0.90;;;32.20;31.20;;;;;;5155482;27;20023;-74
2021/05/21 11:50:04;;;;;;;2.90;1.13;;;32.20;31.10;;;;;;5154507;27;20034;-74
2021/05/21 11:52:30;;;;;;;0.90;0.73;;;32.20;31.10;;;;;;5155725;27;20058;-75
2021/05/21 11:54:57;;;;;;;1.30;0.55;;;32.60;31.00;;;;;;5155480;27;20392;-76
2021/05/21 11:57:24;;;;;;;2.92;0.70;;;33.30;30.80;;;;;;5155829;27;20154;-74
2021/05/21 11:59:53;;;;;;;1.73;0.90;;;33.90;30.60;;;;;;5156203;27;20030;-76
2021/05/21 12:02:20;;;;;;;2.58;1.10;;;34.50;30.50;;;;;;5155742;27;20023;-75
2021/05/21 12:04:46;;;;;;;0.98;0.98;;;35.20;30.20;;;;;;5155582;27;20030;-74
2021/05/21 12:07:22;;;;;;;0.65;0.60;;;36.00;30.20;;;;;;5156165;27;20023;-74
2021/05/21 12:10:02;;;;;;;2.42;0.90;;;36.60;29.80;;;;;;5155884;27;20118;-74
2021/05/21 12:12:30;;;;;;;1.20;0.65;;;37.30;29.60;;;;;;5155577;27;20027;-75
2021/05/21 12:15:28;;;;;;;1.10;1.08;;;38.00;29.30;;;;;;5155129;27;20023;-75
2021/05/21 12:17:54;;;;;;;1.27;0.70;;;38.40;29.00;;;;;;5120449;27;20034;-75
2021/05/21 12:20:21;;;;;;;1.67;0.70;;;38.90;29.00;;;;;;5155354;27;20023;-76
2021/05/21 12:23:05;;;;;;;2.65;0.70;;;39.40;28.70;;;;;;5136582;27;20118;-74
2021/05/21 12:25:35;;;;;;;1.08;0.60;;;39.70;28.40;;;;;;5155036;27;20057;-75
2021/05/21 12:28:03;;;;;;;2.47;0.90;;;39.90;28.50;;;;;;5155400;27;20019;-74
2021/05/21 12:30:29;;;;;;;0.90;0.70;;;40.00;28.40;;;;;;5155070;27;20038;-74
2021/05/21 12:32:55;;;;;;;1.70;0.80;;;40.20;28.20;;;;;;5155024;27;20077;-75
2021/05/21 12:35:42;;;;;;;0.70;0.70;;;40.40;28.10;;;;;;5155088;27;20058;-76
2021/05/21 12:38:10;;;;;;;0.63;0.60;;;40.70;27.90;;;;;;5158763;27;20027;-75
2021/05/21 12:40:51;;;;;;;1.00;0.60;;;41.10;27.90;;;;;;5159284;27;20027;-75
2021/05/21 12:43:17;;;;;;;0.70;0.70;;;41.10;27.50;;;;;;5160603;27;20031;-76
2021/05/21 12:46:04;;;;;;;2.97;0.80;;;40.70;27.50;;;;;;5159265;27;20039;-76
2021/05/21 12:48:43;;;;;;;3.60;1.00;;;39.70;27.30;;;;;;5158781;27;20034;-76
2021/05/21 12:51:19;;;;;;;0.65;0.60;;;39.20;27.60;;;;;;5159049;27;20030;-75